sensor_id;sensor_type;location;lat;lon;timestamp;pressure;altitude;pressure_sealevel;temperature;humidity
71642;BME280;60657;50.122;14.468;2024-03-02T00:02:23;97267.18795722866;;;10.420004577706571;86.28656443121996
71642;BME280;60657;50.122;14.468;2024-03-02T00:05:27;97268.83017975201;;;10.436026550698102;86.27702754253453
71642;BME280;60657;50.122;14.468;2024-03-02T00:08:31;97265.44201653847;;;10.468070496681165;86.12252994583048
71642;BME280;60657;50.122;14.468;2024-03-02T00:11:37;97264.69885536408;;;10.457389181353477;85.95277332722972
71642;BME280;60657;50.122;14.468;2024-03-02T00:14:41;97268.80433871661;;;10.470740825513083;86.0309758144503
71642;BME280;60657;50.122;14.468;2024-03-02T00:17:45;97262.9788409836;;;10.518806744487676;85.97756923781185
71642;BME280;60657;50.122;14.468;2024-03-02T00:20:52;97259.589810646;;;10.48943312733654;85.76966506446936
71642;BME280;60657;50.122;14.468;2024-03-02T00:24:00;97261.28445328849;;;10.486762798504614;85.7486839093614
71642;BME280;60657;50.122;14.468;2024-03-02T00:27:12;97257.17936286959;;;10.476081483176927;85.68001831082627
71642;BME280;60657;50.122;14.468;2024-03-02T00:30:33;97255.53735294742;;;10.486762798504614;85.26230258640422
71642;BME280;60657;50.122;14.468;2024-03-02T00:33:54;97256.22640665041;;;10.48943312733654;85.24513618677042
71642;BME280;60657;50.122;14.468;2024-03-02T00:36:58;97252.83564239611;;;10.534828717479208;85.15548943312734
71642;BME280;60657;50.122;14.468;2024-03-02T00:40:03;97256.1193091348;;;10.457389181353477;85.0734721904326
71642;BME280;60657;50.122;14.468;2024-03-02T00:43:11;97258.66263067443;;;10.42267490653849;85.1020828564889
71642;BME280;60657;50.122;14.468;2024-03-02T00:46:42;97261.09874906682;;;10.468070496681165;85.20317387655452
71642;BME280;60657;50.122;14.468;2024-03-02T00:49:47;97260.30456288188;;;10.48943312733654;85.38437476157779
71642;BME280;60657;50.122;14.468;2024-03-02T00:52:51;97265.28385389748;;;10.478751812008852;85.02578774700542
71642;BME280;60657;50.122;14.468;2024-03-02T00:55:55;97260.93624076174;;;10.617608911268789;84.93804837109941
71642;BME280;60657;50.122;14.468;2024-03-02T00:58:59;97266.07819755278;;;10.534828717479208;85.02006561379416
71642;BME280;60657;50.122;14.468;2024-03-02T01:02:03;97267.72021513856;;;10.57488364995804;85.12878614480812
71642;BME280;60657;50.122;14.468;2024-03-02T01:05:07;97264.48941056296;;;10.53215838864729;85.30235751888304
71642;BME280;60657;50.122;14.468;2024-03-02T01:08:11;97271.26767372947;;;10.420004577706571;85.49881742580301
71642;BME280;60657;50.122;14.468;2024-03-02T01:11:15;97275.50201680692;;;10.44670786602579;85.56557564660105
71642;BME280;60657;50.122;14.468;2024-03-02T01:14:20;97275.50201680692;;;10.420004577706571;85.59800106813154
71642;BME280;60657;50.122;14.468;2024-03-02T01:17:24;97276.27195397737;;;10.411993591210802;85.48928053711757
71642;BME280;60657;50.122;14.468;2024-03-02T01:20:28;97273.7310424879;;;10.385290302891583;85.59609369039444
71642;BME280;60657;50.122;14.468;2024-03-02T01:23:31;97271.1106720684;;;10.382619974059665;85.33478294041352
71642;BME280;60657;50.122;14.468;2024-03-02T01:26:35;97262.02638086112;;;10.347905699244677;85.23369192034791
71642;BME280;60657;50.122;14.468;2024-03-02T01:29:39;97264.48941056296;;;10.444037537193864;84.99717708094911
71642;BME280;60657;50.122;14.468;2024-03-02T01:32:43;97268.62105951304;;;10.476081483176927;84.87701228351263
71642;BME280;60657;50.122;14.468;2024-03-02T01:35:47;97275.16292882783;;;10.473411154345008;84.65384908827345
71642;BME280;60657;50.122;14.468;2024-03-02T01:38:51;97268.51444861807;;;10.508125429159989;84.61760891126879
71642;BME280;60657;50.122;14.468;2024-03-02T01:41:54;97271.8520560278;;;10.521477073319602;84.67101548790723
71642;BME280;60657;50.122;14.468;2024-03-02T01:44:58;97264.38263746718;;;10.48142214084077;84.66338597695888
71642;BME280;60657;50.122;14.468;2024-03-02T01:48:02;97266.87244151543;;;10.494773785000383;84.60234988937209
71642;BME280;60657;50.122;14.468;2024-03-02T01:51:08;97264.35573051414;;;10.57488364995804;84.46120393682764
71642;BME280;60657;50.122;14.468;2024-03-02T01:54:12;97265.17670298679;;;10.521477073319602;84.35248340581369
71642;BME280;60657;50.122;14.468;2024-03-02T01:57:16;97263.48070940224;;;10.57488364995804;84.47455558098726
71642;BME280;60657;50.122;14.468;2024-03-02T02:00:20;97261.70228188779;;;10.614938582436864;84.22850385290303
71642;BME280;60657;50.122;14.468;2024-03-02T02:03:25;97255.16263674285;;;10.54818036163882;84.46501869230183
71642;BME280;60657;50.122;14.468;2024-03-02T02:06:29;97264.27449672933;;;10.526817730983446;84.40398260471504
71642;BME280;60657;50.122;14.468;2024-03-02T02:09:33;97269.20022583651;;;10.644312199588008;84.27428091859312
71642;BME280;60657;50.122;14.468;2024-03-02T02:12:37;97253.41082621031;;;10.692378118562601;84.06256198977646
71642;BME280;60657;50.122;14.468;2024-03-02T02:15:42;97248.54099801618;;;10.665674830243383;84.09498741130693
71642;BME280;60657;50.122;14.468;2024-03-02T02:18:45;97245.0355669551;;;10.705729762722207;83.98435950255589
71642;BME280;60657;50.122;14.468;2024-03-02T02:21:49;97242.74032607749;;;10.561532005798426;84.56420233463035
71642;BME280;60657;50.122;14.468;2024-03-02T02:24:53;97256.06524757539;;;10.521477073319602;84.7339589532311
71642;BME280;60657;50.122;14.468;2024-03-02T02:27:57;97240.11119058632;;;10.625619897764551;84.68245975432974
71642;BME280;60657;50.122;14.468;2024-03-02T02:31:01;97243.72505156508;;;10.497444113832302;85.21080338750286
71642;BME280;60657;50.122;14.468;2024-03-02T02:34:05;97241.15370152131;;;10.52414740215152;85.07919432364386
71642;BME280;60657;50.122;14.468;2024-03-02T02:37:09;97238.6913367351;;;10.468070496681165;85.367208361944
71642;BME280;60657;50.122;14.468;2024-03-02T02:40:13;97245.39378334246;;;10.460059510185395;85.35576409552148
71642;BME280;60657;50.122;14.468;2024-03-02T02:43:18;97237.73275776833;;;10.580224307621883;85.34431982909895
71642;BME280;60657;50.122;14.468;2024-03-02T02:46:22;97236.88421856235;;;10.588235294117645;85.11352712291142
71642;BME280;60657;50.122;14.468;2024-03-02T02:49:25;97244.43690697919;;;10.596246280613414;84.86175326161593
71642;BME280;60657;50.122;14.468;2024-03-02T02:52:31;97247.72017232393;;;10.612268253604945;84.65003433279927
71642;BME280;60657;50.122;14.468;2024-03-02T02:55:35;97242.8226538793;;;10.526817730983446;84.57755397878996
71642;BME280;60657;50.122;14.468;2024-03-02T02:58:39;97250.3460065109;;;10.580224307621883;84.69390402075227
71642;BME280;60657;50.122;14.468;2024-03-02T03:01:43;97251.19383149747;;;10.52414740215152;84.38872358281834
71642;BME280;60657;50.122;14.468;2024-03-02T03:04:47;97247.06248056791;;;10.425345235370415;84.56038757915617
71642;BME280;60657;50.122;14.468;2024-03-02T03:07:51;97251.19383149747;;;10.409323262378884;84.64812695506218
71642;BME280;60657;50.122;14.468;2024-03-02T03:10:55;97255.37881121007;;;10.414663920042727;84.66338597695888
71642;BME280;60657;50.122;14.468;2024-03-02T03:13:59;97247.14289192278;;;10.382619974059665;84.82360570687419
71642;BME280;60657;50.122;14.468;2024-03-02T03:17:03;97251.30071351021;;;10.393301289387352;84.77019913023575
71642;BME280;60657;50.122;14.468;2024-03-02T03:20:07;97252.09505168867;;;10.43869687953002;84.63859006637675
71642;BME280;60657;50.122;14.468;2024-03-02T03:23:11;97256.35835603367;;;10.326543068589302;84.86175326161593
71642;BME280;60657;50.122;14.468;2024-03-02T03:26:15;97253.04818304046;;;10.329213397421228;84.52033264667735
71642;BME280;60657;50.122;14.468;2024-03-02T03:29:21;97265.02754665886;;;10.160982681010147;84.30289158464943
71642;BME280;60657;50.122;14.468;2024-03-02T03:32:25;97272.565853683;;;10.134279392690928;83.95574883649958
71642;BME280;60657;50.122;14.468;2024-03-02T03:35:29;97269.37708467715;;;10.06485084306096;83.38925764858473
71642;BME280;60657;50.122;14.468;2024-03-02T03:38:33;97279.23309711287;;;10.094224460212104;83.16227969787137
71642;BME280;60657;50.122;14.468;2024-03-02T03:41:37;97277.54220004953;;;10.10757610437171;82.93720912489509
71642;BME280;60657;50.122;14.468;2024-03-02T03:44:42;97282.54257594905;;;10.083543144884416;82.50041962310216
71642;BME280;60657;50.122;14.468;2024-03-02T03:47:46;97279.32852643685;;;9.995422293430991;82.28679331654841
71642;BME280;60657;50.122;14.468;2024-03-02T03:50:50;97276.0901175712;;;10.00343327992676;81.39604791332876
71642;BME280;60657;50.122;14.468;2024-03-02T03:53:54;97281.97970113101;;;9.896620126649879;81.24727244983596
71642;BME280;60657;50.122;14.468;2024-03-02T03:56:58;97283.66858736318;;;9.800488288700691;81.06988632028687
71642;BME280;60657;50.122;14.468;2024-03-02T04:00:02;97281.0887764564;;;9.982070649271378;80.85053788052186
71642;BME280;60657;50.122;14.468;2024-03-02T04:03:09;97281.93346769617;;;9.920653086137179;80.13717860685131
71642;BME280;60657;50.122;14.468;2024-03-02T04:06:13;97282.80117829442;;;9.939345387960628;80.07995727473869
71642;BME280;60657;50.122;14.468;2024-03-02T04:09:17;97284.6258825046;;;9.821850919356066;80.16388189517052
71642;BME280;60657;50.122;14.468;2024-03-02T04:12:21;97287.04559614632;;;9.805828946364535;79.77668421454185
71642;BME280;60657;50.122;14.468;2024-03-02T04:15:25;97294.66198789874;;;9.720378423743036;80.14862287327382
71642;BME280;60657;50.122;14.468;2024-03-02T04:18:29;97295.41784870862;;;9.805828946364535;79.68703746089875
71642;BME280;60657;50.122;14.468;2024-03-02T04:21:33;97307.00941844657;;;9.744411383230336;79.74998092622263
71642;BME280;60657;50.122;14.468;2024-03-02T04:24:37;97309.5614798342;;;9.712367437247273;79.77096208133058
71642;BME280;60657;50.122;14.468;2024-03-02T04:27:41;97313.67046004297;;;9.773785000381473;79.44861524376287
71642;BME280;60657;50.122;14.468;2024-03-02T04:30:45;97315.27071176008;;;9.80849927519646;79.48676279850461
71642;BME280;60657;50.122;14.468;2024-03-02T04:33:49;97311.05209733757;;;9.861905851834898;79.09575036240177
71642;BME280;60657;50.122;14.468;2024-03-02T04:36:53;97316.09250887483;;;9.717708094911117;79.16632333867399
71642;BME280;60657;50.122;14.468;2024-03-02T04:39:57;97321.11001266299;;;9.747081712062254;79.27313649195086
71642;BME280;60657;50.122;14.468;2024-03-02T04:43:00;97320.28815733339;;;9.85122453650721;78.96795605401694
71642;BME280;60657;50.122;14.468;2024-03-02T04:46:05;97324.46166540282;;;9.837872892347598;79.02327000839246
71642;BME280;60657;50.122;14.468;2024-03-02T04:49:09;97330.38298435933;;;9.712367437247273;78.90691996643015
71642;BME280;60657;50.122;14.468;2024-03-02T04:52:13;97324.54606461461;;;9.747081712062254;78.71427481498436
71642;BME280;60657;50.122;14.468;2024-03-02T04:55:17;97328.65578447243;;;9.773785000381473;78.66277561608301
71642;BME280;60657;50.122;14.468;2024-03-02T04:58:21;97345.32312369124;;;9.661631189440754;78.93553063248646
71642;BME280;60657;50.122;14.468;2024-03-02T05:01:25;97341.13117437615;;;9.763103685053785;78.45296406500343
71642;BME280;60657;50.122;14.468;2024-03-02T05:04:29;97352.6816563311;;;9.80849927519646;78.29846646829938
71642;BME280;60657;50.122;14.468;2024-03-02T05:07:33;97351.01688816924;;;9.789806973373004;78.31372549019608
71642;BME280;60657;50.122;14.468;2024-03-02T05:10:36;97342.7133565687;;;9.78446631570916;78.13061722743572
71642;BME280;60657;50.122;14.468;2024-03-02T05:13:40;97347.58284689311;;;9.82719157701991;77.9112687876707
71642;BME280;60657;50.122;14.468;2024-03-02T05:16:44;97348.5505258823;;;9.704356450751504;78.06195162890059
71642;BME280;60657;50.122;14.468;2024-03-02T05:19:48;97353.40036612008;;;9.837872892347598;77.84451056687266
71642;BME280;60657;50.122;14.468;2024-03-02T05:22:52;97355.06545316683;;;9.840543221179523;77.73960479133288
71642;BME280;60657;50.122;14.468;2024-03-02T05:25:56;97350.8921596585;;;9.877927824826429;77.43442435339895
71642;BME280;60657;50.122;14.468;2024-03-02T05:29:00;97354.98144143121;;;9.950026703288316;77.48210879682613
71642;BME280;60657;50.122;14.468;2024-03-02T05:32:06;97361.64252285144;;;9.904631113145648;77.3829251544976
71642;BME280;60657;50.122;14.468;2024-03-02T05:35:10;97370.00906096974;;;9.845883878843367;77.56031128404669
71642;BME280;60657;50.122;14.468;2024-03-02T05:38:14;97378.39289400863;;;9.79247730220493;77.6919203479057
71642;BME280;60657;50.122;14.468;2024-03-02T05:41:18;97375.84604785996;;;9.78446631570916;77.78919661249714
71642;BME280;60657;50.122;14.468;2024-03-02T05:44:22;97381.5617851172;;;9.89394979781796;77.55840390630961
71642;BME280;60657;50.122;14.468;2024-03-02T05:47:26;97388.35994563869;;;9.688334477759973;77.72434576943618
71642;BME280;60657;50.122;14.468;2024-03-02T05:50:30;97396.60413912233;;;9.797817959868773;77.57557030594339
71642;BME280;60657;50.122;14.468;2024-03-02T05:53:35;97391.64976531672;;;9.816510261692223;77.26848249027238
71642;BME280;60657;50.122;14.468;2024-03-02T05:56:39;97398.2879767672;;;9.779125658045317;77.2513160906386
71642;BME280;60657;50.122;14.468;2024-03-02T05:59:42;97405.03946651821;;;9.688334477759973;77.18837262531471
71642;BME280;60657;50.122;14.468;2024-03-02T06:02:47;97399.18719591922;;;9.731059739070723;77.13305867093919
71642;BME280;60657;50.122;14.468;2024-03-02T06:05:51;97399.95233405678;;;9.781795986877242;77.10444800488288
71642;BME280;60657;50.122;14.468;2024-03-02T06:08:55;97404.08433043584;;;9.773785000381473;77.26085297932403
71642;BME280;60657;50.122;14.468;2024-03-02T06:11:59;97414.14445099604;;;9.64026855878538;76.86221103227282
71642;BME280;60657;50.122;14.468;2024-03-02T06:15:03;97404.1794050063;;;9.693675135423817;76.9404135194934
71642;BME280;60657;50.122;14.468;2024-03-02T06:18:08;97408.31129573799;;;9.672312504768442;76.78591592278934
71642;BME280;60657;50.122;14.468;2024-03-02T06:21:12;97399.14901722629;;;9.645609216449223;76.68673228046082
71642;BME280;60657;50.122;14.468;2024-03-02T06:24:16;97404.82926803814;;;9.776455329213398;76.47310597390707
71642;BME280;60657;50.122;14.468;2024-03-02T06:27:20;97407.25750204126;;;9.840543221179523;76.31097886625467
71642;BME280;60657;50.122;14.468;2024-03-02T06:30:24;97412.1927217608;;;9.896620126649879;75.87418936446174
71642;BME280;60657;50.122;14.468;2024-03-02T06:33:28;97416.40380460065;;;9.856565194171054;75.89898527504387
71642;BME280;60657;50.122;14.468;2024-03-02T06:36:32;97423.86565436084;;;9.856565194171054;75.75783932249942
71642;BME280;60657;50.122;14.468;2024-03-02T06:39:36;97417.24583028903;;;9.877927824826429;75.91805905241473
71642;BME280;60657;50.122;14.468;2024-03-02T06:42:40;97417.1676690625;;;9.907301441977566;75.62432288090334
71642;BME280;60657;50.122;14.468;2024-03-02T06:45:44;97412.21250686837;;;9.89394979781796;75.60143434805829
71642;BME280;60657;50.122;14.468;2024-03-02T06:48:48;97421.30037061422;;;9.939345387960628;75.73113603418021
71642;BME280;60657;50.122;14.468;2024-03-02T06:51:53;97428.68427572798;;;10.016784924086366;75.71206225680933
71642;BME280;60657;50.122;14.468;2024-03-02T06:54:58;97432.777606136;;;10.014114595254448;75.36682688639658
71642;BME280;60657;50.122;14.468;2024-03-02T06:58:02;97436.95055406056;;;10.030136568245979;75.29625391012436
71642;BME280;60657;50.122;14.468;2024-03-02T07:01:06;97427.76143892632;;;10.030136568245979;75.30769817654688
71642;BME280;60657;50.122;14.468;2024-03-02T07:04:10;97429.3863190451;;;10.067521171892885;75.17799649042496
71642;BME280;60657;50.122;14.468;2024-03-02T07:07:14;97440.94375900607;;;10.027466239414053;75.19897764553292
71642;BME280;60657;50.122;14.468;2024-03-02T07:10:18;97442.64969047917;;;10.062180514229041;75.21423666742962
71642;BME280;60657;50.122;14.468;2024-03-02T07:13:22;97436.06824064058;;;10.019455252918291;75.48699168383307
71642;BME280;60657;50.122;14.468;2024-03-02T07:16:26;97448.40865681451;;;10.067521171892885;75.23521782253758
71642;BME280;60657;50.122;14.468;2024-03-02T07:19:30;97453.52329942642;;;9.928664072632941;75.68345159075304
71642;BME280;60657;50.122;14.468;2024-03-02T07:22:36;97456.69635903256;;;10.120927748531322;75.4526588845655
71642;BME280;60657;50.122;14.468;2024-03-02T07:25:40;97468.19561141294;;;10.177004654001678;75.32295719844358
71642;BME280;60657;50.122;14.468;2024-03-02T07:28:45;97462.43588775865;;;10.134279392690928;75.62241550316625
71642;BME280;60657;50.122;14.468;2024-03-02T07:31:51;97472.42961395351;;;10.024795910582135;75.4812695506218
71642;BME280;60657;50.122;14.468;2024-03-02T07:34:55;97476.5835177476;;;10.12359807736324;75.67391470206759
71642;BME280;60657;50.122;14.468;2024-03-02T07:37:59;97477.44547689454;;;10.12359807736324;75.33249408712902
71642;BME280;60657;50.122;14.468;2024-03-02T07:41:03;97467.31189087397;;;10.225070572976271;75.12649729152362
71642;BME280;60657;50.122;14.468;2024-03-02T07:44:08;97478.79019171518;;;10.371938658731978;74.6572823682002
71642;BME280;60657;50.122;14.468;2024-03-02T07:47:12;97471.25944899753;;;10.374608987563896;74.53330281528955
71642;BME280;60657;50.122;14.468;2024-03-02T07:50:16;97460.37126350992;;;10.468070496681165;74.48371099412527
71642;BME280;60657;50.122;14.468;2024-03-02T07:53:20;97452.58619598654;;;10.71107042038605;73.97825589379721
71642;BME280;60657;50.122;14.468;2024-03-02T07:56:24;97453.84900074877;;;10.895323109788663;73.07797360189213
71642;BME280;60657;50.122;14.468;2024-03-02T07:59:29;97458.13068742407;;;10.735103379873351;73.13328755626765
71642;BME280;60657;50.122;14.468;2024-03-02T08:02:33;97456.26655015728;;;10.975432974746319;72.30357824063478
71642;BME280;60657;50.122;14.468;2024-03-02T08:05:38;97450.4983743864;;;11.365300984206911;71.10955977721828
71642;BME280;60657;50.122;14.468;2024-03-02T08:08:43;97444.23776825218;;;11.58693827725643;70.34851606012055
71642;BME280;60657;50.122;14.468;2024-03-02T08:11:47;97448.87439171773;;;11.76585030899519;69.6179903868162
71642;BME280;60657;50.122;14.468;2024-03-02T08:14:51;97445.82718255956;;;12.161058976119634;68.74822613870451
71642;BME280;60657;50.122;14.468;2024-03-02T08:17:55;97458.3696069262;;;12.11299305714504;68.47737850003814
71642;BME280;60657;50.122;14.468;2024-03-02T08:20:59;97458.3074591171;;;12.139696345464259;68.44876783398185
71642;BME280;60657;50.122;14.468;2024-03-02T08:24:04;97458.61936669012;;;12.38536659800107;67.68009460593576
71642;BME280;60657;50.122;14.468;2024-03-02T08:27:10;97461.08385417919;;;12.27588311589227;67.1136034180209
71642;BME280;60657;50.122;14.468;2024-03-02T08:30:15;97458.87698651863;;;12.31860837720302;68.00816357671474
71642;BME280;60657;50.122;14.468;2024-03-02T08:33:20;97460.95286592208;;;12.433432516975664;67.37682154573892
71642;BME280;60657;50.122;14.468;2024-03-02T08:36:24;97455.7248757174;;;12.50553139543755;67.41306172274358
71642;BME280;60657;50.122;14.468;2024-03-02T08:39:28;97464.56400696655;;;12.206454566262302;68.08445868619822
71642;BME280;60657;50.122;14.468;2024-03-02T08:42:32;97461.40529335167;;;12.254520485236895;68.10353246356908
71642;BME280;60657;50.122;14.468;2024-03-02T08:45:36;97466.39828373541;;;12.203784237430384;68.33813992523079
71642;BME280;60657;50.122;14.468;2024-03-02T08:48:41;97470.11927063431;;;11.928740367742428;69.18883039597162
71642;BME280;60657;50.122;14.468;2024-03-02T08:51:45;97473.29077560997;;;11.552224002441442;70.18829633020523
71642;BME280;60657;50.122;14.468;2024-03-02T08:54:49;97485.271661005;;;11.469443808651867;70.57167925535973
71642;BME280;60657;50.122;14.468;2024-03-02T08:57:53;97472.83048984641;;;11.445410849164567;70.56404974441138
71642;BME280;60657;50.122;14.468;2024-03-02T09:00:58;97477.95243342729;;;11.365300984206911;70.92645151445792
71642;BME280;60657;50.122;14.468;2024-03-02T09:04:02;97480.63031027504;;;11.231784542610818;71.12100404364081
71642;BME280;60657;50.122;14.468;2024-03-02T09:07:07;97487.26085808598;;;11.338597695887692;71.1515220874342
71642;BME280;60657;50.122;14.468;2024-03-02T09:10:11;97487.7383195507;;;11.554894331273367;70.89784084840161
71642;BME280;60657;50.122;14.468;2024-03-02T09:13:15;97467.67738256113;;;11.594949263752191;69.71526665140765
71642;BME280;60657;50.122;14.468;2024-03-02T09:16:19;97469.9458936157;;;11.680399786373691;69.08201724269475
71642;BME280;60657;50.122;14.468;2024-03-02T09:19:23;97473.96970592056;;;11.72312504768444;67.84603646906233
71642;BME280;60657;50.122;14.468;2024-03-02T09:22:27;97477.22868696552;;;11.733806363012128;67.70679789425498
71642;BME280;60657;50.122;14.468;2024-03-02T09:25:32;97479.43031146399;;;11.899366750591284;67.9967193102922
71642;BME280;60657;50.122;14.468;2024-03-02T09:28:38;97465.7956508408;;;11.998168917372396;68.00053406576639
71642;BME280;60657;50.122;14.468;2024-03-02T09:31:42;97472.1814275828;;;12.249179827573052;67.45120927748532
71642;BME280;60657;50.122;14.468;2024-03-02T09:34:47;97463.35120948742;;;12.449454489967195;65.3454642557412
71642;BME280;60657;50.122;14.468;2024-03-02T09:37:51;97454.73428524799;;;12.697795071335925;65.33401998931869
71642;BME280;60657;50.122;14.468;2024-03-02T09:40:55;97459.35165611062;;;12.783245593957425;64.37842374303807
71642;BME280;60657;50.122;14.468;2024-03-02T09:43:59;97478.38108040666;;;12.90608072022583;64.5367360952163
71642;BME280;60657;50.122;14.468;2024-03-02T09:47:04;97465.67486700667;;;12.876707103074693;64.34981307698176
71642;BME280;60657;50.122;14.468;2024-03-02T09:50:09;97464.92461053861;;;12.938124666208893;64.82856488899061
71642;BME280;60657;50.122;14.468;2024-03-02T09:53:13;97455.53411494763;;;12.919432364385443;64.40131227588311
71642;BME280;60657;50.122;14.468;2024-03-02T09:56:19;97466.70802075362;;;12.831311512932018;64.595864805066
71642;BME280;60657;50.122;14.468;2024-03-02T09:59:24;97450.46253031306;;;13.10101472495613;63.74326695658809
71642;BME280;60657;50.122;14.468;2024-03-02T10:02:29;97463.52621640218;;;13.282597085526817;63.86724650949874
71642;BME280;60657;50.122;14.468;2024-03-02T10:05:33;97441.94365579456;;;13.56031128404669;62.928816662851915
71642;BME280;60657;50.122;14.468;2024-03-02T10:08:42;97450.87736205294;;;13.28793774319066;63.69367513542382
71642;BME280;60657;50.122;14.468;2024-03-02T10:11:47;97451.01085249563;;;13.546959639887085;62.86778057526513
71642;BME280;60657;50.122;14.468;2024-03-02T10:14:51;97458.0394651855;;;13.533607995727472;62.3718623636225
71642;BME280;60657;50.122;14.468;2024-03-02T10:18:08;97457.48241217146;;;13.394750896467535;62.228809033340966
71642;BME280;60657;50.122;14.468;2024-03-02T10:21:14;97465.20511516345;;;13.28793774319066;62.80102235446708
71642;BME280;60657;50.122;14.468;2024-03-02T10:24:18;97467.85095058907;;;13.170443274586098;63.23971923399711
71642;BME280;60657;50.122;14.468;2024-03-02T10:27:26;97465.5677591242;;;13.090333409628442;63.03181506065461
71642;BME280;60657;50.122;14.468;2024-03-02T10:30:31;97468.13852259055;;;13.044937819485774;63.197756923781185
71642;BME280;60657;50.122;14.468;2024-03-02T10:33:36;97474.51517081953;;;12.831311512932018;64.07324330510414
71642;BME280;60657;50.122;14.468;2024-03-02T10:36:42;97468.76534681699;;;12.855344472419318;64.2410925459678
71642;BME280;60657;50.122;14.468;2024-03-02T10:39:47;97467.15655798576;;;12.767223620965893;64.87815671015488
71642;BME280;60657;50.122;14.468;2024-03-02T10:42:51;97453.35708317177;;;12.927443350881205;64.76943617914091
71642;BME280;60657;50.122;14.468;2024-03-02T10:45:56;97457.84797925538;;;12.868696116578924;64.59967956054017
71642;BME280;60657;50.122;14.468;2024-03-02T10:49:03;97448.35927057925;;;13.031586175326161;64.62066071564813
71642;BME280;60657;50.122;14.468;2024-03-02T10:52:08;97441.69737557505;;;13.31197070267796;63.71656366826886
71642;BME280;60657;50.122;14.468;2024-03-02T10:55:12;97425.79918946215;;;13.704509040970471;62.24788281071183
71642;BME280;60657;50.122;14.468;2024-03-02T10:58:17;97422.74901025687;;;14.107728694590676;60.773479819943546
71642;BME280;60657;50.122;14.468;2024-03-02T11:01:23;97416.13630685554;;;14.639124132143131;59.9990844586862
71642;BME280;60657;50.122;14.468;2024-03-02T11:04:30;97416.8635967077;;;14.526970321202413;58.957656214236664
71642;BME280;60657;50.122;14.468;2024-03-02T11:07:37;97410.42099389457;;;14.799343862058443;58.45601586938277
71642;BME280;60657;50.122;14.468;2024-03-02T11:10:45;97400.10650385736;;;14.970244907301442;57.42793926909285